Emma Janneke — ZDHK8 — position and weather

sailwx.info

Track history (hours):
 
Tides and Currents Weather Stations Pressure Air Temp Water Temp Dewpoint Dewpoint Depression Visibility Wind Speed Wind Dir Waves Ship Positions

Emma Janneke

Last reported at 2018-Jul-18 02:30 UTC. Time now 2018-Jul-18 02:52 UTC.
Position N 57°45' E 010°12'.

Length 115 m; draft 4.4 m.

Type: Ship. MMSI: 236330000.

Date/timePositionNaut miles runAvg speedWind from/ knotsBaromVisibWave heightAir tempDewpointWater temp
2018-Jul-18 02:30N 57°45' E 010°12'510.8
2018-Jul-18 02:00N 57°44' E 010°02'710.7
2018-Jul-18 01:24N 57°42' E 009°51'610.5
2018-Jul-18 00:48N 57°40' E 009°39'7210.4
2018-Jul-17 17:51N 57°31' E 007°26'710.5
2018-Jul-17 17:09N 57°31' E 007°12'210.5
2018-Jul-17 17:00N 57°31' E 007°09'510.6
2018-Jul-17 16:29N 57°32' E 006°59'510.5
2018-Jul-17 15:59N 57°32' E 006°49'510.6
2018-Jul-17 15:29N 57°32' E 006°39'  
Track history (hours):
 
Tides and Currents Weather Stations Pressure Air Temp Water Temp Dewpoint Dewpoint Depression Visibility Wind Speed Wind Dir Waves Ship Positions

Emma Janneke

Last reported at 2018-Jul-18 02:30 UTC. Time now 2018-Jul-18 02:52 UTC.
Position N 57°45' E 010°12'.

Length 115 m; draft 4.4 m.

Type: Ship. MMSI: 236330000.

Date/timePositionNaut miles runAvg speedWind from/ knotsBaromVisibWave heightAir tempDewpointWater temp
2018-Jul-18 02:30N 57°45' E 010°12'510.8
2018-Jul-18 02:00N 57°44' E 010°02'710.7
2018-Jul-18 01:24N 57°42' E 009°51'610.5
2018-Jul-18 00:48N 57°40' E 009°39'7210.4
2018-Jul-17 17:51N 57°31' E 007°26'710.5
2018-Jul-17 17:09N 57°31' E 007°12'210.5
2018-Jul-17 17:00N 57°31' E 007°09'510.6
2018-Jul-17 16:29N 57°32' E 006°59'510.5
2018-Jul-17 15:59N 57°32' E 006°49'510.6
2018-Jul-17 15:29N 57°32' E 006°39'  

Dump ship's entire track history